AirNav   Air Wisconsin Up To $57,000 Bonus
 
 1334 users online  

4FD8 Captiva Heliport
Sanibel, Florida, USA

GOING TO SANIBEL?


FAA INFORMATION EFFECTIVE 02 JANUARY 2020

Location

FAA Identifier: 4FD8
Lat/Long: 26-32-30.2790N 082-11-31.3400W
26-32.504650N 082-11.522333W
26.5417442,-82.1920389
(estimated)
Elevation: 3 ft. / 1 m (estimated)
Variation: 02W (1985)
From city: 1 mile N of SANIBEL, FL
Time zone: UTC -5 (UTC -4 during Daylight Saving Time)
Zip code: 33924

Heliport Operations

Heliport use: Private use. Permission required prior to landing
Activation date: 03/1988
Control tower: no
ARTCC: MIAMI CENTER
FSS: MIAMI FLIGHT SERVICE STATION
Attendance: UNATNDD
Segmented circle: no

Heliport Communications

WX ASOS at FMY (18 nm E): 123.725 (239-936-2318)

Nearby radio navigation aids

VOR radial/distance  VOR name  Freq  Var
RSWr274/22.4LEE COUNTY VORTAC111.8002W
PGDr212/(24.9)PUNTA GORDA VOR110.2006W
CYYr319/32.2CYPRESS VOR/DME108.6003W

 
NDB name  Hdg/Dist  Freq  Var  ID
CALOO280/13.134103WFM ..-. --

Heliport Services

Runway Information

Helipad H1

Dimensions: 100 x 100 ft. / 30 x 30 m
Surface: concrete
Latitude: 26-32.504650N
Longitude: 082-11.522333W
Traffic pattern: leftleft

Heliport Ownership and Management from official FAA records

Ownership: Publicly-owned
Owner: CIPRIANI TRUST
P O BOX 915
SANIBEL, FL 33957
Phone 813-472-0732
-HARRY BALKE-TRUSTEE
Manager: RITA MAISS
15191 HOMESTEAD RD
LEHIGH ACRES, FL 33971
Phone (239) 694-2174

Additional Remarks

FOR CD CTC FORT MYERS APCH AT 239-768-1377, WHEN APCH CLSD CTC MIAMI ARTCC AT 305-716-1731.

Instrument Procedures

There are no published instrument procedures at 4FD8.

Some nearby airports with instrument procedures:

KFMY - Page Field Airport (18 nm E)
KRSW - Southwest Florida International Airport (23 nm E)
KPGD - Punta Gorda Airport (25 nm NE)
KAPF - Naples Municipal Airport (32 nm SE)
KVNC - Venice Municipal Airport (34 nm NW)
 
Loc | Ops | Rwys | IFR | FBO | Links
Com | Nav | Svcs | Stats | Notes

Reliance Aviation
AirBoss

 
Area around 4FD8 (Captiva Heliport)
 
Road maps at: MapQuest Bing Google
 
Aerial photo
No photo
 
Sectional chart

 
Airport distance calculator
Flying to Captiva Heliport? Find the distance to fly.

From to 4FD8

Sunrise and sunset
Times for 23-Jan-2020
 Local
(UTC-5)
 Zulu
(UTC)
Morning civil twilight06:5411:54
Sunrise07:1812:18
Sunset18:0323:03
Evening civil twilight18:2823:28

Current date and time
Zulu (UTC)  23-Jan-2020 23:34:39
Local (UTC-5)  23-Jan-2020 18:34:39
 
METAR
KFMY 
18nm E 
232253Z 00000KT 10SM CLR 24/14 A2998 RMK AO2 SLP152 T02390139
KRSW 
23nm E 
232253Z 04003KT 10SM CLR 22/14 A2998 RMK AO2 SLP149 T02220144
KPGD 
25nm NE 
232253Z 06004KT 10SM CLR 21/14 A3000 RMK AO2 SLP156 T02060139
KAPF 
34nm SE 
232253Z 32003KT 10SM CLR 22/16 A2998 RMK AO2 SLP150 T02220161
KVNC 
34nm NW 
232315Z AUTO 34004KT 7SM FEW048 20/16 A3000 RMK AO2
TAF
KFMY 
18nm E 
231736Z 2318/2418 05007KT P6SM SCT030 SCT250 FM232100 09007KT P6SM SCT040 BKN250 FM240700 VRB03KT 2SM BR OVC006 FM241500 10004KT P6SM FEW010 SCT030
NOTAMs
Click for the latest NOTAMs
NOTAMs are issued by the DoD/FAA and will open in a separate window not controlled by AirNav.

 

 
 

Would you like to see your business listed on this page?

 If your business provides an interesting product or service to pilots, flight crews, aircraft, or users of the Captiva Heliport, you should consider listing it here.  To start the listing process, click on the button below
 
Add a business
 

Other Pages about Captiva Heliport

Update a link
 
Copyright © AirNav, LLC. All rights reserved. Privacy Policy  Contact